METAR-Meldungen aus der Umgebung

   
EDMO - Oberpfaffenhofen, Germany
Entfernung von der Station bis: SSO 18 km
Aktualisierung: 06-08-2020 21:50
Klar  
Klar  
   Wind: OSO 5.6 km/h
Wind: OSO 5.6 km/h
Temperatur: 18°C
Taupunkt: 15°C
Luftfeuchte: 83%
Luftdruck: 1022 hPa
Bewölkt: Clear
Sichtbarkeit: Mehr als 10 km
Bewölkung: Klar ft
EDMO 061950Z AUTO 11003KT 9999 // NCD 18/15 Q1022
ETSL - Lechfeld (ger-Af, Germany
Entfernung von der Station bis: WSW 23 km
Aktualisierung: 06-08-2020 21:20
leicht bewölkt  
leicht bewölkt  
   Wind: ONO 5.6 km/h
Wind: ONO 5.6 km/h
Temperatur: 19°C
Taupunkt: 14°C
Luftfeuchte: 73%
Luftdruck: 1021 hPa
Bewölkt: Few Clouds
Sichtbarkeit: Mehr als 10 km
Bewölkung: leicht bewölkt 30000 ft
ETSL 061920Z 06003KT 9999 FEW300 19/14 Q1021 BLU+
EDMA - Augsburg/Mulhaus, Germany
Entfernung von der Station bis: NW 30 km
Aktualisierung: 06-08-2020 21:50
Klar  
Klar  
   Wind: ONO 3.7 km/h
Wind: ONO 3.7 km/h
Temperatur: 18°C
Taupunkt: 16°C
Luftfeuchte: 88%
Luftdruck: 1021 hPa
Bewölkt: Clear
Sichtbarkeit: Mehr als 10 km
Bewölkung: Klar ft
EDMA 061950Z AUTO 07002KT 9999 NCD 18/16 Q1021
ETHA - Altenstadt/Schon, Germany
Entfernung von der Station bis: SSW 49 km
Aktualisierung: 06-08-2020 21:20
  
  
   Wind: Osten 7.4 km/h
Wind: Osten 7.4 km/h
Temperatur: 19°C
Taupunkt: 14°C
Luftfeuchte: 73%
Luftdruck: 1022 hPa
ETHA 061920Z AUTO 09004KT //// // ////// 19/14 Q1022 ///
EDDM - Munich-Flughafen, Germany
Entfernung von der Station bis: ONO 50 km
Aktualisierung: 06-08-2020 21:50
Klar  
Klar  
   Wind: NNO 3.7 km/h
Wind: NNO 3.7 km/h
Temperatur: 18°C
Taupunkt: 16°C
Luftfeuchte: 88%
Luftdruck: 1021 hPa
Sichtbarkeit: Mehr als 10 km
Bewölkung: Klar ft
EDDM 061950Z 03002KT CAVOK 18/16 Q1021 NOSIG
 

Script entwickelt von  Saratoga-weather.org Angepasst für das Template von  Weerstation Leuven